createdAt,value
2022-09-20T00:03:52.431Z,3.73
2022-09-20T00:08:56.734Z,4.00
2022-09-20T00:14:00.681Z,4.00
2022-09-20T00:19:05.167Z,3.63
2022-09-20T00:24:07.838Z,4.13
2022-09-20T00:29:12.098Z,4.77
2022-09-20T00:34:33.291Z,4.40
2022-09-20T00:39:36.050Z,4.50
2022-09-20T00:44:43.221Z,4.43
2022-09-20T00:49:46.444Z,4.70
2022-09-20T00:54:49.383Z,4.63
2022-09-20T00:59:52.822Z,4.10
2022-09-20T01:04:57.800Z,4.10
2022-09-20T01:10:00.427Z,4.83
2022-09-20T01:15:06.151Z,4.53
2022-09-20T01:20:14.758Z,4.20
2022-09-20T01:25:51.062Z,4.00
2022-09-20T01:31:12.373Z,4.27
2022-09-20T01:36:41.780Z,4.03
2022-09-20T01:41:57.540Z,4.13
2022-09-20T01:47:23.069Z,4.83
2022-09-20T01:52:40.719Z,4.43
2022-09-20T01:58:24.906Z,4.83
2022-09-20T02:04:01.307Z,4.93
2022-09-20T02:09:12.262Z,4.40
2022-09-20T02:14:44.507Z,4.30
2022-09-20T02:20:34.639Z,4.50
2022-09-20T02:26:15.308Z,4.83
2022-09-20T02:31:47.549Z,5.20
2022-09-20T02:36:59.573Z,5.87
2022-09-20T02:42:23.847Z,5.23
2022-09-20T02:47:39.519Z,4.90
2022-09-20T02:53:14.816Z,5.00
2022-09-20T02:58:38.934Z,4.47
2022-09-20T03:04:04.851Z,4.60
2022-09-20T03:09:26.159Z,4.60
2022-09-20T03:14:38.311Z,4.00
2022-09-20T03:19:56.958Z,4.17
2022-09-20T03:25:15.168Z,4.40
2022-09-20T03:30:27.873Z,4.33
2022-09-20T03:35:48.511Z,4.33
2022-09-20T03:40:56.898Z,4.27
2022-09-20T03:46:19.937Z,3.63
2022-09-20T03:51:41.198Z,3.60
2022-09-20T03:57:09.793Z,3.43
2022-09-20T04:02:31.322Z,4.10
2022-09-20T04:08:18.346Z,3.20
2022-09-20T04:13:36.565Z,3.27
2022-09-20T04:19:10.222Z,3.47
2022-09-20T04:24:24.572Z,3.40
2022-09-20T04:30:08.161Z,3.33
2022-09-20T04:36:10.742Z,3.50
2022-09-20T04:41:42.008Z,3.80
2022-09-20T04:53:07.514Z,3.40
2022-09-20T04:58:36.022Z,3.20
2022-09-20T05:04:27.299Z,3.23
2022-09-20T05:10:08.297Z,4.00
2022-09-20T05:15:28.963Z,3.63
2022-09-20T05:20:49.123Z,3.30
2022-09-20T05:26:40.886Z,3.30
2022-09-20T05:32:03.007Z,3.77
2022-09-20T05:37:47.768Z,3.27
2022-09-20T05:42:58.210Z,3.23
2022-09-20T05:48:12.471Z,3.37
2022-09-20T05:53:26.926Z,3.73
2022-09-20T05:58:32.372Z,3.70
2022-09-20T06:03:46.115Z,3.27
2022-09-20T06:09:14.231Z,3.83
2022-09-20T06:14:19.325Z,3.90
2022-09-20T06:19:58.213Z,3.80
2022-09-20T06:25:11.856Z,4.70
2022-09-20T06:30:18.702Z,5.40
2022-09-20T06:35:24.531Z,5.87
2022-09-20T06:40:59.583Z,5.70
2022-09-20T06:46:02.098Z,8.63
2022-09-20T06:51:04.589Z,6.73
2022-09-20T06:56:13.586Z,6.77
2022-09-20T07:01:26.499Z,7.23
2022-09-20T07:06:33.139Z,7.53
2022-09-20T07:11:37.870Z,6.33
2022-09-20T07:16:40.275Z,5.90
2022-09-20T07:21:42.709Z,5.77
2022-09-20T07:27:05.244Z,6.57
2022-09-20T07:32:08.092Z,7.17
2022-09-20T07:37:11.881Z,6.17
2022-09-20T07:42:14.825Z,6.73
2022-09-20T07:47:18.174Z,6.13
2022-09-20T07:52:20.664Z,5.90
2022-09-20T07:57:23.711Z,6.50
2022-09-20T08:02:27.837Z,6.93
2022-09-20T08:07:30.513Z,5.67
2022-09-20T08:17:55.751Z,4.90
2022-09-20T08:23:22.139Z,6.00
2022-09-20T08:28:21.537Z,5.50
2022-09-20T08:33:24.516Z,6.57
2022-09-20T08:44:00.547Z,4.53
2022-09-20T08:49:10.992Z,5.40
2022-09-20T08:54:16.325Z,5.20
2022-09-20T08:59:21.039Z,6.30
2022-09-20T09:04:37.633Z,4.77
2022-09-20T09:09:44.035Z,6.03
2022-09-20T09:14:49.515Z,4.43
2022-09-20T09:19:53.904Z,4.13
2022-09-20T09:25:17.353Z,4.03
2022-09-20T09:30:34.060Z,2.77
2022-09-20T09:35:37.185Z,3.67
2022-09-20T09:40:50.849Z,4.93
2022-09-20T09:45:54.054Z,2.87
2022-09-20T09:51:10.025Z,4.83
2022-09-20T09:56:27.453Z,1.70
2022-09-20T10:01:39.632Z,3.67
2022-09-20T10:06:59.529Z,3.87
2022-09-20T10:12:23.875Z,1.40
2022-09-20T10:17:43.248Z,3.23
2022-09-20T10:29:09.596Z,3.87
2022-09-20T10:34:43.180Z,3.67
2022-09-20T10:39:52.967Z,1.30
2022-09-20T10:45:36.041Z,2.73
2022-09-20T10:51:06.883Z,1.40
2022-09-20T10:56:28.417Z,3.43
2022-09-20T11:01:41.918Z,3.90
2022-09-20T11:06:50.144Z,3.93
2022-09-20T11:12:10.669Z,1.57
2022-09-20T11:17:25.765Z,1.30
2022-09-20T11:22:40.173Z,1.00
2022-09-20T11:27:53.831Z,0.90
2022-09-20T11:33:19.237Z,3.40
2022-09-20T11:38:24.964Z,3.70
2022-09-20T11:43:30.359Z,0.70
2022-09-20T11:48:41.773Z,3.43
2022-09-20T11:54:12.533Z,4.30
2022-09-20T11:59:35.493Z,0.90
2022-09-20T12:04:38.199Z,3.00
2022-09-20T12:09:43.913Z,1.63
2022-09-20T12:14:59.727Z,1.60
2022-09-20T12:20:02.638Z,2.87
2022-09-20T12:25:39.193Z,4.23
2022-09-20T12:30:41.678Z,1.53
2022-09-20T12:35:58.307Z,0.90
2022-09-20T12:41:05.999Z,0.80
2022-09-20T12:46:24.545Z,0.70
2022-09-20T12:51:54.602Z,1.83
2022-09-20T12:57:16.593Z,2.80
2022-09-20T13:02:44.884Z,3.07
2022-09-20T13:07:54.711Z,1.30
2022-09-20T13:13:15.821Z,5.70
2022-09-20T13:18:19.574Z,9.30
2022-09-20T13:23:29.730Z,1.60
2022-09-20T13:28:38.503Z,2.23
2022-09-20T13:33:41.231Z,4.13
2022-09-20T13:38:45.642Z,5.23
2022-09-20T13:43:50.297Z,4.77
2022-09-20T13:48:59.582Z,2.00
2022-09-20T13:54:24.949Z,3.30
2022-09-20T13:59:36.508Z,2.70
2022-09-20T14:04:39.305Z,0.83
2022-09-20T14:09:41.841Z,1.77
2022-09-20T14:14:44.938Z,0.80
2022-09-20T14:19:49.829Z,1.43
2022-09-20T14:24:59.898Z,4.40
2022-09-20T14:30:03.888Z,2.67
2022-09-20T14:35:18.596Z,4.07
2022-09-20T14:40:29.547Z,2.83
2022-09-20T14:45:38.924Z,1.77
2022-09-20T14:50:44.445Z,1.63
2022-09-20T14:56:00.350Z,2.50
2022-09-20T15:01:25.913Z,1.33
2022-09-20T15:06:28.339Z,1.87
2022-09-20T15:11:30.930Z,1.07
2022-09-20T15:16:36.427Z,1.43
2022-09-20T15:21:39.246Z,1.10
2022-09-20T15:26:42.519Z,1.70
2022-09-20T15:31:47.731Z,0.70
2022-09-20T15:36:50.813Z,0.90
2022-09-20T15:41:53.303Z,1.00
2022-09-20T15:46:55.758Z,1.07
2022-09-20T15:51:58.105Z,0.83
2022-09-20T15:57:00.513Z,1.00
2022-09-20T16:02:03.073Z,0.70
2022-09-20T16:07:07.115Z,0.60
2022-09-20T16:12:09.482Z,2.00
2022-09-20T16:17:12.007Z,2.33
2022-09-20T16:22:14.464Z,1.33
2022-09-20T16:27:18.888Z,1.00
2022-09-20T16:32:21.402Z,3.10
2022-09-20T16:37:24.408Z,1.13
2022-09-20T16:42:27.054Z,4.33
2022-09-20T16:47:29.715Z,1.90
2022-09-20T16:52:32.172Z,0.80
2022-09-20T16:57:36.833Z,1.23
2022-09-20T17:02:39.182Z,2.27
2022-09-20T17:07:42.922Z,5.30
2022-09-20T17:12:47.722Z,4.07
2022-09-20T17:17:50.261Z,2.00
2022-09-20T17:22:54.645Z,2.10
2022-09-20T17:27:57.442Z,2.47
2022-09-20T17:33:00.454Z,2.67
2022-09-20T17:38:02.760Z,3.20
2022-09-20T17:43:05.348Z,2.57
2022-09-20T17:48:10.695Z,2.37
2022-09-20T17:53:13.389Z,2.40
2022-09-20T17:58:15.885Z,2.60
2022-09-20T18:03:18.378Z,2.30
2022-09-20T18:08:20.815Z,2.50
2022-09-20T18:13:23.586Z,2.23
2022-09-20T18:18:25.987Z,3.13
2022-09-20T18:23:29.744Z,3.13
2022-09-20T18:28:32.266Z,3.00
2022-09-20T18:33:36.848Z,2.97
2022-09-20T18:38:40.941Z,3.20
2022-09-20T18:43:46.665Z,2.43
2022-09-20T18:48:49.625Z,2.40
2022-09-20T18:53:52.988Z,2.80
2022-09-20T18:59:01.612Z,3.20
2022-09-20T19:04:25.356Z,3.43
2022-09-20T19:09:40.467Z,2.67
2022-09-20T19:15:13.657Z,2.67
2022-09-20T19:20:23.283Z,2.83
2022-09-20T19:25:40.734Z,2.00
2022-09-20T19:30:43.830Z,1.80
2022-09-20T19:35:50.036Z,2.10
2022-09-20T19:41:27.396Z,1.90
2022-09-20T19:46:38.364Z,1.97
2022-09-20T19:51:42.859Z,1.63
2022-09-20T19:56:56.473Z,1.90
2022-09-20T20:01:59.255Z,2.20
2022-09-20T20:07:16.893Z,2.37
2022-09-20T20:12:49.947Z,1.67
2022-09-20T20:18:03.340Z,2.10
2022-09-20T20:23:42.723Z,2.23
2022-09-20T20:28:45.163Z,1.90
2022-09-20T20:33:48.085Z,2.10
2022-09-20T20:38:52.655Z,1.67
2022-09-20T20:43:56.320Z,1.77
2022-09-20T20:48:59.043Z,2.03
2022-09-20T20:54:04.156Z,2.40
2022-09-20T20:59:06.560Z,1.90
2022-09-20T21:04:09.927Z,2.17
2022-09-20T21:09:13.638Z,2.10
2022-09-20T21:14:16.525Z,2.10
2022-09-20T21:19:19.136Z,2.10
2022-09-20T21:24:21.479Z,2.40
2022-09-20T21:29:23.806Z,2.20
2022-09-20T21:34:26.495Z,2.47
2022-09-20T21:39:28.891Z,2.80
2022-09-20T21:44:32.471Z,2.63
2022-09-20T21:49:34.913Z,2.27
2022-09-20T21:54:37.265Z,2.20
2022-09-20T21:59:39.651Z,2.30
2022-09-20T22:04:42.056Z,2.07
2022-09-20T22:09:44.400Z,2.27
2022-09-20T22:14:46.750Z,2.33
2022-09-20T22:19:49.087Z,2.30
2022-09-20T22:24:51.455Z,2.37
2022-09-20T22:29:54.203Z,2.40
2022-09-20T22:34:58.063Z,2.40
2022-09-20T22:40:00.603Z,2.53
2022-09-20T22:45:03.124Z,2.07
2022-09-20T22:50:06.345Z,2.33
2022-09-20T22:55:09.241Z,2.53
2022-09-20T23:00:12.029Z,2.43
2022-09-20T23:05:14.515Z,2.33
2022-09-20T23:10:16.930Z,2.50
2022-09-20T23:15:19.411Z,2.50
2022-09-20T23:20:21.782Z,3.03
2022-09-20T23:25:24.159Z,2.67
2022-09-20T23:30:26.600Z,2.50
2022-09-20T23:35:29.301Z,2.57
2022-09-20T23:40:33.727Z,2.57
2022-09-20T23:45:36.233Z,2.77
2022-09-20T23:50:38.649Z,2.90
2022-09-20T23:55:42.126Z,3.03
